sensor_id;sensor_type;location;lat;lon;timestamp;temperature;humidity
48920;DHT22;34730;50.894;6.052;2022-07-29T00:00:11;19.10;99.90
48920;DHT22;34730;50.894;6.052;2022-07-29T00:00:42;19.10;99.90
48920;DHT22;34730;50.894;6.052;2022-07-29T00:01:15;19.10;99.90
48920;DHT22;34730;50.894;6.052;2022-07-29T00:01:46;19.10;99.90
48920;DHT22;34730;50.894;6.052;2022-07-29T00:02:18;19.10;99.90
48920;DHT22;34730;50.894;6.052;2022-07-29T00:02:48;19.20;99.90
48920;DHT22;34730;50.894;6.052;2022-07-29T00:03:20;19.20;99.90
48920;DHT22;34730;50.894;6.052;2022-07-29T00:03:51;19.20;99.90
48920;DHT22;34730;50.894;6.052;2022-07-29T00:04:22;19.20;99.90
48920;DHT22;34730;50.894;6.052;2022-07-29T00:04:52;19.10;99.90
48920;DHT22;34730;50.894;6.052;2022-07-29T00:05:23;19.20;99.90
48920;DHT22;34730;50.894;6.052;2022-07-29T00:05:54;19.10;99.90
48920;DHT22;34730;50.894;6.052;2022-07-29T00:06:27;19.10;99.90
48920;DHT22;34730;50.894;6.052;2022-07-29T00:06:58;19.10;99.90
48920;DHT22;34730;50.894;6.052;2022-07-29T00:07:30;19.10;99.90
48920;DHT22;34730;50.894;6.052;2022-07-29T00:08:00;19.10;99.90
48920;DHT22;34730;50.894;6.052;2022-07-29T00:08:33;19.10;99.90
48920;DHT22;34730;50.894;6.052;2022-07-29T00:09:04;19.10;99.90
48920;DHT22;34730;50.894;6.052;2022-07-29T00:09:36;19.10;99.90
48920;DHT22;34730;50.894;6.052;2022-07-29T00:10:07;19.10;99.90
48920;DHT22;34730;50.894;6.052;2022-07-29T00:10:40;19.10;99.90
48920;DHT22;34730;50.894;6.052;2022-07-29T00:11:14;19.10;99.90
48920;DHT22;34730;50.894;6.052;2022-07-29T00:11:45;19.10;99.90
48920;DHT22;34730;50.894;6.052;2022-07-29T00:12:16;19.20;99.90
48920;DHT22;34730;50.894;6.052;2022-07-29T00:12:47;19.20;99.90
48920;DHT22;34730;50.894;6.052;2022-07-29T00:13:17;19.10;99.90
48920;DHT22;34730;50.894;6.052;2022-07-29T00:13:48;19.20;99.90
48920;DHT22;34730;50.894;6.052;2022-07-29T00:14:19;19.10;99.90
48920;DHT22;34730;50.894;6.052;2022-07-29T00:14:53;19.10;99.90
48920;DHT22;34730;50.894;6.052;2022-07-29T00:15:27;19.20;99.90
48920;DHT22;34730;50.894;6.052;2022-07-29T00:15:58;19.20;99.90
48920;DHT22;34730;50.894;6.052;2022-07-29T00:16:29;19.20;99.90
48920;DHT22;34730;50.894;6.052;2022-07-29T00:17:00;19.20;99.90
48920;DHT22;34730;50.894;6.052;2022-07-29T00:17:30;19.20;99.90
48920;DHT22;34730;50.894;6.052;2022-07-29T00:18:01;19.20;99.90
48920;DHT22;34730;50.894;6.052;2022-07-29T00:18:32;19.20;99.90
48920;DHT22;34730;50.894;6.052;2022-07-29T00:19:04;19.20;99.90
48920;DHT22;34730;50.894;6.052;2022-07-29T00:19:34;19.20;99.90
48920;DHT22;34730;50.894;6.052;2022-07-29T00:20:06;19.30;99.90
48920;DHT22;34730;50.894;6.052;2022-07-29T00:20:37;19.30;99.90
48920;DHT22;34730;50.894;6.052;2022-07-29T00:21:10;19.30;99.90
48920;DHT22;34730;50.894;6.052;2022-07-29T00:21:41;19.30;99.90
48920;DHT22;34730;50.894;6.052;2022-07-29T00:22:15;19.30;99.90
48920;DHT22;34730;50.894;6.052;2022-07-29T00:22:46;19.30;99.90
48920;DHT22;34730;50.894;6.052;2022-07-29T00:23:19;19.40;99.90
48920;DHT22;34730;50.894;6.052;2022-07-29T00:23:50;19.50;99.90
48920;DHT22;34730;50.894;6.052;2022-07-29T00:24:25;19.50;99.90
48920;DHT22;34730;50.894;6.052;2022-07-29T00:24:56;19.50;99.90
48920;DHT22;34730;50.894;6.052;2022-07-29T00:25:26;19.40;99.90
48920;DHT22;34730;50.894;6.052;2022-07-29T00:25:58;19.40;99.90
48920;DHT22;34730;50.894;6.052;2022-07-29T00:26:29;19.40;99.90
48920;DHT22;34730;50.894;6.052;2022-07-29T00:27:06;19.30;99.90
48920;DHT22;34730;50.894;6.052;2022-07-29T00:27:37;19.30;99.90
48920;DHT22;34730;50.894;6.052;2022-07-29T00:28:08;19.30;99.90
48920;DHT22;34730;50.894;6.052;2022-07-29T00:28:44;19.30;99.90
48920;DHT22;34730;50.894;6.052;2022-07-29T00:29:14;19.20;99.90
48920;DHT22;34730;50.894;6.052;2022-07-29T00:29:45;19.20;99.90
48920;DHT22;34730;50.894;6.052;2022-07-29T00:30:16;19.20;99.90
48920;DHT22;34730;50.894;6.052;2022-07-29T00:30:47;19.20;99.90
48920;DHT22;34730;50.894;6.052;2022-07-29T00:31:20;19.10;99.90
48920;DHT22;34730;50.894;6.052;2022-07-29T00:31:51;19.20;99.90
48920;DHT22;34730;50.894;6.052;2022-07-29T00:32:24;19.20;99.90
48920;DHT22;34730;50.894;6.052;2022-07-29T00:32:57;19.20;99.90
48920;DHT22;34730;50.894;6.052;2022-07-29T00:33:28;19.20;99.90
48920;DHT22;34730;50.894;6.052;2022-07-29T00:34:00;19.20;99.90
48920;DHT22;34730;50.894;6.052;2022-07-29T00:34:31;19.10;99.90
48920;DHT22;34730;50.894;6.052;2022-07-29T00:35:23;19.10;99.90
48920;DHT22;34730;50.894;6.052;2022-07-29T00:36:13;19.20;99.90
48920;DHT22;34730;50.894;6.052;2022-07-29T00:36:43;19.20;99.90
48920;DHT22;34730;50.894;6.052;2022-07-29T00:37:14;19.20;99.90
48920;DHT22;34730;50.894;6.052;2022-07-29T00:37:45;19.30;99.90
48920;DHT22;34730;50.894;6.052;2022-07-29T00:38:20;19.40;99.90
48920;DHT22;34730;50.894;6.052;2022-07-29T00:38:51;19.40;99.90
48920;DHT22;34730;50.894;6.052;2022-07-29T00:39:27;19.30;99.90
48920;DHT22;34730;50.894;6.052;2022-07-29T00:39:57;19.30;99.90
48920;DHT22;34730;50.894;6.052;2022-07-29T00:40:28;19.30;99.90
48920;DHT22;34730;50.894;6.052;2022-07-29T00:41:01;19.30;99.90
48920;DHT22;34730;50.894;6.052;2022-07-29T00:41:35;19.30;99.90
48920;DHT22;34730;50.894;6.052;2022-07-29T00:42:06;19.20;99.90
48920;DHT22;34730;50.894;6.052;2022-07-29T00:42:45;19.20;99.90
48920;DHT22;34730;50.894;6.052;2022-07-29T00:43:17;19.20;99.90
48920;DHT22;34730;50.894;6.052;2022-07-29T00:43:48;19.10;99.90
48920;DHT22;34730;50.894;6.052;2022-07-29T00:44:20;19.10;99.90
48920;DHT22;34730;50.894;6.052;2022-07-29T00:44:50;19.00;99.90
48920;DHT22;34730;50.894;6.052;2022-07-29T00:45:22;19.00;99.90
48920;DHT22;34730;50.894;6.052;2022-07-29T00:45:53;19.00;99.90
48920;DHT22;34730;50.894;6.052;2022-07-29T00:46:24;19.00;99.90
48920;DHT22;34730;50.894;6.052;2022-07-29T00:46:54;19.00;99.90
48920;DHT22;34730;50.894;6.052;2022-07-29T00:47:25;19.00;99.90
48920;DHT22;34730;50.894;6.052;2022-07-29T00:47:58;19.00;99.90
48920;DHT22;34730;50.894;6.052;2022-07-29T00:48:30;18.90;99.90
48920;DHT22;34730;50.894;6.052;2022-07-29T00:49:01;18.90;99.90
48920;DHT22;34730;50.894;6.052;2022-07-29T00:49:33;18.90;99.90
48920;DHT22;34730;50.894;6.052;2022-07-29T00:50:05;18.70;99.90
48920;DHT22;34730;50.894;6.052;2022-07-29T00:50:37;18.70;99.90
48920;DHT22;34730;50.894;6.052;2022-07-29T00:51:08;18.60;99.90
48920;DHT22;34730;50.894;6.052;2022-07-29T00:51:40;18.50;99.90
48920;DHT22;34730;50.894;6.052;2022-07-29T00:52:11;18.50;99.90
48920;DHT22;34730;50.894;6.052;2022-07-29T00:52:43;18.40;99.90
48920;DHT22;34730;50.894;6.052;2022-07-29T00:53:14;18.20;99.90
48920;DHT22;34730;50.894;6.052;2022-07-29T00:53:45;18.10;99.90
48920;DHT22;34730;50.894;6.052;2022-07-29T00:54:17;18.00;99.90
48920;DHT22;34730;50.894;6.052;2022-07-29T00:54:48;18.00;99.90
48920;DHT22;34730;50.894;6.052;2022-07-29T00:55:21;18.00;99.90
48920;DHT22;34730;50.894;6.052;2022-07-29T00:55:54;18.00;99.90
48920;DHT22;34730;50.894;6.052;2022-07-29T00:56:25;18.00;99.90
48920;DHT22;34730;50.894;6.052;2022-07-29T00:56:59;18.00;99.90
48920;DHT22;34730;50.894;6.052;2022-07-29T00:57:30;18.00;99.90
48920;DHT22;34730;50.894;6.052;2022-07-29T00:58:01;17.90;99.90
48920;DHT22;34730;50.894;6.052;2022-07-29T00:58:32;17.90;99.90
48920;DHT22;34730;50.894;6.052;2022-07-29T00:59:05;17.90;99.90
48920;DHT22;34730;50.894;6.052;2022-07-29T00:59:36;17.90;99.90
48920;DHT22;34730;50.894;6.052;2022-07-29T01:00:09;17.90;99.90
48920;DHT22;34730;50.894;6.052;2022-07-29T01:00:40;17.90;99.90
48920;DHT22;34730;50.894;6.052;2022-07-29T01:01:13;17.90;99.90
48920;DHT22;34730;50.894;6.052;2022-07-29T01:01:44;17.90;99.90
48920;DHT22;34730;50.894;6.052;2022-07-29T01:02:14;17.90;99.90
48920;DHT22;34730;50.894;6.052;2022-07-29T01:02:46;17.80;99.90
48920;DHT22;34730;50.894;6.052;2022-07-29T01:03:20;17.90;99.90
48920;DHT22;34730;50.894;6.052;2022-07-29T01:03:52;17.90;99.90
48920;DHT22;34730;50.894;6.052;2022-07-29T01:04:23;17.90;99.90
48920;DHT22;34730;50.894;6.052;2022-07-29T01:04:56;18.00;99.90
48920;DHT22;34730;50.894;6.052;2022-07-29T01:05:28;18.00;99.90
48920;DHT22;34730;50.894;6.052;2022-07-29T01:05:59;17.90;99.90
48920;DHT22;34730;50.894;6.052;2022-07-29T01:06:30;17.90;99.90
48920;DHT22;34730;50.894;6.052;2022-07-29T01:07:02;17.90;99.90
48920;DHT22;34730;50.894;6.052;2022-07-29T01:07:35;17.90;99.90
48920;DHT22;34730;50.894;6.052;2022-07-29T01:08:08;17.90;99.90
48920;DHT22;34730;50.894;6.052;2022-07-29T01:08:39;17.90;99.90
48920;DHT22;34730;50.894;6.052;2022-07-29T01:09:11;17.90;99.90
48920;DHT22;34730;50.894;6.052;2022-07-29T01:09:44;18.00;99.90
48920;DHT22;34730;50.894;6.052;2022-07-29T01:10:18;17.90;99.90
48920;DHT22;34730;50.894;6.052;2022-07-29T01:10:51;17.90;99.90
48920;DHT22;34730;50.894;6.052;2022-07-29T01:11:22;17.80;99.90
48920;DHT22;34730;50.894;6.052;2022-07-29T01:11:56;17.80;99.90
48920;DHT22;34730;50.894;6.052;2022-07-29T01:12:28;17.80;99.90
48920;DHT22;34730;50.894;6.052;2022-07-29T01:13:03;17.80;99.90
48920;DHT22;34730;50.894;6.052;2022-07-29T01:13:35;17.80;99.90
48920;DHT22;34730;50.894;6.052;2022-07-29T01:14:07;17.80;99.90
48920;DHT22;34730;50.894;6.052;2022-07-29T01:14:39;17.70;99.90
48920;DHT22;34730;50.894;6.052;2022-07-29T01:15:11;17.70;99.90
48920;DHT22;34730;50.894;6.052;2022-07-29T01:15:56;17.70;99.90
48920;DHT22;34730;50.894;6.052;2022-07-29T01:16:32;17.70;99.90
48920;DHT22;34730;50.894;6.052;2022-07-29T01:18:16;17.70;99.90
48920;DHT22;34730;50.894;6.052;2022-07-29T01:18:49;17.70;99.90
48920;DHT22;34730;50.894;6.052;2022-07-29T01:20:07;17.60;99.90
48920;DHT22;34730;50.894;6.052;2022-07-29T01:21:51;17.70;99.90
48920;DHT22;34730;50.894;6.052;2022-07-29T01:22:42;17.70;99.90
48920;DHT22;34730;50.894;6.052;2022-07-29T01:23:46;17.80;99.90
48920;DHT22;34730;50.894;6.052;2022-07-29T01:24:42;17.70;99.90
48920;DHT22;34730;50.894;6.052;2022-07-29T01:25:28;17.60;99.90
48920;DHT22;34730;50.894;6.052;2022-07-29T01:26:28;17.60;99.90
48920;DHT22;34730;50.894;6.052;2022-07-29T01:30:02;17.50;99.90
48920;DHT22;34730;50.894;6.052;2022-07-29T01:30:35;17.40;99.90
48920;DHT22;34730;50.894;6.052;2022-07-29T01:31:08;17.40;99.90
48920;DHT22;34730;50.894;6.052;2022-07-29T01:32:04;17.40;99.90
48920;DHT22;34730;50.894;6.052;2022-07-29T01:32:37;17.40;99.90
48920;DHT22;34730;50.894;6.052;2022-07-29T01:33:12;17.40;99.90
48920;DHT22;34730;50.894;6.052;2022-07-29T01:34:07;17.40;99.90
48920;DHT22;34730;50.894;6.052;2022-07-29T01:34:50;17.50;99.90
48920;DHT22;34730;50.894;6.052;2022-07-29T01:35:30;17.40;99.90
48920;DHT22;34730;50.894;6.052;2022-07-29T01:36:11;17.40;99.90
48920;DHT22;34730;50.894;6.052;2022-07-29T01:36:56;17.50;99.90
48920;DHT22;34730;50.894;6.052;2022-07-29T01:38:21;17.40;99.90
48920;DHT22;34730;50.894;6.052;2022-07-29T01:39:12;17.40;99.90
48920;DHT22;34730;50.894;6.052;2022-07-29T01:39:46;17.40;99.90
48920;DHT22;34730;50.894;6.052;2022-07-29T01:41:14;17.40;99.90
48920;DHT22;34730;50.894;6.052;2022-07-29T01:42:05;17.40;99.90
48920;DHT22;34730;50.894;6.052;2022-07-29T01:42:44;17.40;99.90
48920;DHT22;34730;50.894;6.052;2022-07-29T01:43:20;17.40;99.90
48920;DHT22;34730;50.894;6.052;2022-07-29T01:43:58;17.40;99.90
48920;DHT22;34730;50.894;6.052;2022-07-29T01:44:46;17.40;99.90
48920;DHT22;34730;50.894;6.052;2022-07-29T01:45:30;17.30;99.90
48920;DHT22;34730;50.894;6.052;2022-07-29T01:46:07;17.40;99.90
48920;DHT22;34730;50.894;6.052;2022-07-29T01:46:47;17.30;99.90
48920;DHT22;34730;50.894;6.052;2022-07-29T01:47:23;17.40;99.90
48920;DHT22;34730;50.894;6.052;2022-07-29T01:48:49;17.40;99.90
48920;DHT22;34730;50.894;6.052;2022-07-29T01:49:25;17.40;99.90
48920;DHT22;34730;50.894;6.052;2022-07-29T01:49:58;17.40;99.90
48920;DHT22;34730;50.894;6.052;2022-07-29T01:50:47;17.40;99.90
48920;DHT22;34730;50.894;6.052;2022-07-29T01:51:28;17.50;99.90
48920;DHT22;34730;50.894;6.052;2022-07-29T01:52:16;17.40;99.90
48920;DHT22;34730;50.894;6.052;2022-07-29T01:53:29;17.40;99.90
48920;DHT22;34730;50.894;6.052;2022-07-29T01:54:40;17.40;99.90
48920;DHT22;34730;50.894;6.052;2022-07-29T01:55:17;17.30;99.90
48920;DHT22;34730;50.894;6.052;2022-07-29T01:55:52;17.40;99.90
48920;DHT22;34730;50.894;6.052;2022-07-29T01:56:24;17.40;99.90
48920;DHT22;34730;50.894;6.052;2022-07-29T01:56:56;17.30;99.90
48920;DHT22;34730;50.894;6.052;2022-07-29T01:57:31;17.40;99.90
48920;DHT22;34730;50.894;6.052;2022-07-29T01:58:04;17.30;99.90
48920;DHT22;34730;50.894;6.052;2022-07-29T01:58:39;17.40;99.90
48920;DHT22;34730;50.894;6.052;2022-07-29T01:59:11;17.40;99.90
48920;DHT22;34730;50.894;6.052;2022-07-29T01:59:43;17.30;99.90
48920;DHT22;34730;50.894;6.052;2022-07-29T02:00:16;17.30;99.90
48920;DHT22;34730;50.894;6.052;2022-07-29T02:00:48;17.40;99.90
48920;DHT22;34730;50.894;6.052;2022-07-29T02:01:21;17.30;99.90
48920;DHT22;34730;50.894;6.052;2022-07-29T02:01:56;17.30;99.90
48920;DHT22;34730;50.894;6.052;2022-07-29T02:02:28;17.40;99.90
48920;DHT22;34730;50.894;6.052;2022-07-29T02:03:09;17.30;99.90
48920;DHT22;34730;50.894;6.052;2022-07-29T02:03:44;17.30;99.90
48920;DHT22;34730;50.894;6.052;2022-07-29T02:04:16;17.30;99.90
48920;DHT22;34730;50.894;6.052;2022-07-29T02:04:49;17.20;99.90
48920;DHT22;34730;50.894;6.052;2022-07-29T02:05:22;17.30;99.90
48920;DHT22;34730;50.894;6.052;2022-07-29T02:05:56;17.20;99.90
48920;DHT22;34730;50.894;6.052;2022-07-29T02:06:29;17.20;99.90
48920;DHT22;34730;50.894;6.052;2022-07-29T02:07:05;17.20;99.90
48920;DHT22;34730;50.894;6.052;2022-07-29T02:07:37;17.30;99.90
48920;DHT22;34730;50.894;6.052;2022-07-29T02:08:11;17.30;99.90
48920;DHT22;34730;50.894;6.052;2022-07-29T02:08:47;17.30;99.90
48920;DHT22;34730;50.894;6.052;2022-07-29T02:09:21;17.20;99.90
48920;DHT22;34730;50.894;6.052;2022-07-29T02:09:53;17.30;99.90
48920;DHT22;34730;50.894;6.052;2022-07-29T02:10:27;17.20;99.90
48920;DHT22;34730;50.894;6.052;2022-07-29T02:11:00;17.20;99.90
48920;DHT22;34730;50.894;6.052;2022-07-29T02:11:33;17.30;99.90
48920;DHT22;34730;50.894;6.052;2022-07-29T02:12:06;17.30;99.90
48920;DHT22;34730;50.894;6.052;2022-07-29T02:12:39;17.30;99.90
48920;DHT22;34730;50.894;6.052;2022-07-29T02:13:12;17.30;99.90
48920;DHT22;34730;50.894;6.052;2022-07-29T02:13:44;17.30;99.90
48920;DHT22;34730;50.894;6.052;2022-07-29T02:14:18;17.30;99.90
48920;DHT22;34730;50.894;6.052;2022-07-29T02:14:51;17.20;99.90
48920;DHT22;34730;50.894;6.052;2022-07-29T02:15:24;17.20;99.90
48920;DHT22;34730;50.894;6.052;2022-07-29T02:15:57;17.20;99.90
48920;DHT22;34730;50.894;6.052;2022-07-29T02:16:30;17.10;99.90
48920;DHT22;34730;50.894;6.052;2022-07-29T02:17:03;17.10;99.90
48920;DHT22;34730;50.894;6.052;2022-07-29T02:17:39;17.20;99.90
48920;DHT22;34730;50.894;6.052;2022-07-29T02:18:15;17.20;99.90
48920;DHT22;34730;50.894;6.052;2022-07-29T02:18:51;17.20;99.90
48920;DHT22;34730;50.894;6.052;2022-07-29T02:19:25;17.20;99.90
48920;DHT22;34730;50.894;6.052;2022-07-29T02:20:01;17.20;99.90
48920;DHT22;34730;50.894;6.052;2022-07-29T02:20:33;17.20;99.90
48920;DHT22;34730;50.894;6.052;2022-07-29T02:21:05;17.20;99.90
48920;DHT22;34730;50.894;6.052;2022-07-29T02:21:35;17.20;99.90
48920;DHT22;34730;50.894;6.052;2022-07-29T02:22:06;17.30;99.90
48920;DHT22;34730;50.894;6.052;2022-07-29T02:22:39;17.20;99.90
48920;DHT22;34730;50.894;6.052;2022-07-29T02:23:12;17.10;99.90
48920;DHT22;34730;50.894;6.052;2022-07-29T02:23:45;17.20;99.90
48920;DHT22;34730;50.894;6.052;2022-07-29T02:24:17;17.20;99.90
48920;DHT22;34730;50.894;6.052;2022-07-29T02:24:50;17.20;99.90
48920;DHT22;34730;50.894;6.052;2022-07-29T02:25:23;17.20;99.90
48920;DHT22;34730;50.894;6.052;2022-07-29T02:25:56;17.20;99.90
48920;DHT22;34730;50.894;6.052;2022-07-29T02:26:29;17.20;99.90
48920;DHT22;34730;50.894;6.052;2022-07-29T02:27:02;17.20;99.90
48920;DHT22;34730;50.894;6.052;2022-07-29T02:27:34;17.10;99.90
48920;DHT22;34730;50.894;6.052;2022-07-29T02:28:07;17.10;99.90
48920;DHT22;34730;50.894;6.052;2022-07-29T02:28:40;17.10;99.90
48920;DHT22;34730;50.894;6.052;2022-07-29T02:29:15;17.10;99.90
48920;DHT22;34730;50.894;6.052;2022-07-29T02:29:49;17.10;99.90
48920;DHT22;34730;50.894;6.052;2022-07-29T02:30:22;17.10;99.90
48920;DHT22;34730;50.894;6.052;2022-07-29T02:30:57;17.10;99.90
48920;DHT22;34730;50.894;6.052;2022-07-29T02:31:33;17.00;99.90
48920;DHT22;34730;50.894;6.052;2022-07-29T02:32:07;17.00;99.90
48920;DHT22;34730;50.894;6.052;2022-07-29T02:32:40;17.00;99.90
48920;DHT22;34730;50.894;6.052;2022-07-29T02:33:14;17.00;99.90
48920;DHT22;34730;50.894;6.052;2022-07-29T02:33:47;17.00;99.90
48920;DHT22;34730;50.894;6.052;2022-07-29T02:34:20;17.10;99.90
48920;DHT22;34730;50.894;6.052;2022-07-29T02:34:52;17.00;99.90
48920;DHT22;34730;50.894;6.052;2022-07-29T02:35:23;17.10;99.90
48920;DHT22;34730;50.894;6.052;2022-07-29T02:35:55;17.20;99.90
48920;DHT22;34730;50.894;6.052;2022-07-29T02:36:28;17.10;99.90
48920;DHT22;34730;50.894;6.052;2022-07-29T02:37:03;17.10;99.90
48920;DHT22;34730;50.894;6.052;2022-07-29T02:37:35;17.10;99.90
48920;DHT22;34730;50.894;6.052;2022-07-29T02:38:09;17.00;99.90
48920;DHT22;34730;50.894;6.052;2022-07-29T02:39:02;17.10;99.90
48920;DHT22;34730;50.894;6.052;2022-07-29T02:39:36;17.00;99.90
48920;DHT22;34730;50.894;6.052;2022-07-29T02:40:10;17.00;99.90
48920;DHT22;34730;50.894;6.052;2022-07-29T02:40:45;17.00;99.90
48920;DHT22;34730;50.894;6.052;2022-07-29T02:41:29;17.00;99.90
48920;DHT22;34730;50.894;6.052;2022-07-29T02:42:08;17.00;99.90
48920;DHT22;34730;50.894;6.052;2022-07-29T02:42:45;17.00;99.90
48920;DHT22;34730;50.894;6.052;2022-07-29T02:43:20;17.00;99.90
48920;DHT22;34730;50.894;6.052;2022-07-29T02:43:55;17.00;99.90
48920;DHT22;34730;50.894;6.052;2022-07-29T02:44:27;16.90;99.90
48920;DHT22;34730;50.894;6.052;2022-07-29T02:44:58;16.90;99.90
48920;DHT22;34730;50.894;6.052;2022-07-29T02:45:29;16.90;99.90
48920;DHT22;34730;50.894;6.052;2022-07-29T02:46:00;16.90;99.90
48920;DHT22;34730;50.894;6.052;2022-07-29T02:46:35;16.90;99.90
48920;DHT22;34730;50.894;6.052;2022-07-29T02:47:43;16.90;99.90
48920;DHT22;34730;50.894;6.052;2022-07-29T02:48:22;16.90;99.90
48920;DHT22;34730;50.894;6.052;2022-07-29T02:50:00;16.90;99.90
48920;DHT22;34730;50.894;6.052;2022-07-29T02:50:37;16.90;99.90
48920;DHT22;34730;50.894;6.052;2022-07-29T02:51:14;16.90;99.90
48920;DHT22;34730;50.894;6.052;2022-07-29T02:51:55;16.90;99.90
48920;DHT22;34730;50.894;6.052;2022-07-29T02:52:39;16.80;99.90
48920;DHT22;34730;50.894;6.052;2022-07-29T02:53:20;16.80;99.90
48920;DHT22;34730;50.894;6.052;2022-07-29T02:53:54;16.80;99.90
48920;DHT22;34730;50.894;6.052;2022-07-29T02:55:15;16.80;99.90
48920;DHT22;34730;50.894;6.052;2022-07-29T02:55:51;16.90;99.90
48920;DHT22;34730;50.894;6.052;2022-07-29T02:56:28;16.90;99.90
48920;DHT22;34730;50.894;6.052;2022-07-29T02:57:11;16.90;99.90
48920;DHT22;34730;50.894;6.052;2022-07-29T02:57:51;16.90;99.90
48920;DHT22;34730;50.894;6.052;2022-07-29T02:58:28;16.90;99.90
48920;DHT22;34730;50.894;6.052;2022-07-29T02:59:06;16.90;99.90
48920;DHT22;34730;50.894;6.052;2022-07-29T02:59:39;16.90;99.90
48920;DHT22;34730;50.894;6.052;2022-07-29T03:00:12;16.90;99.90
48920;DHT22;34730;50.894;6.052;2022-07-29T03:00:46;16.80;99.90
48920;DHT22;34730;50.894;6.052;2022-07-29T03:01:23;16.80;99.90
48920;DHT22;34730;50.894;6.052;2022-07-29T03:01:55;16.80;99.90
48920;DHT22;34730;50.894;6.052;2022-07-29T03:02:28;16.80;99.90
48920;DHT22;34730;50.894;6.052;2022-07-29T03:03:04;16.80;99.90
48920;DHT22;34730;50.894;6.052;2022-07-29T03:03:44;16.80;99.90
48920;DHT22;34730;50.894;6.052;2022-07-29T03:04:17;16.80;99.90
48920;DHT22;34730;50.894;6.052;2022-07-29T03:04:50;16.70;99.90
48920;DHT22;34730;50.894;6.052;2022-07-29T03:05:22;16.80;99.90
48920;DHT22;34730;50.894;6.052;2022-07-29T03:05:55;16.80;99.90
48920;DHT22;34730;50.894;6.052;2022-07-29T03:06:28;16.70;99.90
48920;DHT22;34730;50.894;6.052;2022-07-29T03:07:00;16.70;99.90
48920;DHT22;34730;50.894;6.052;2022-07-29T03:07:35;16.80;99.90
48920;DHT22;34730;50.894;6.052;2022-07-29T03:08:09;16.80;99.90
48920;DHT22;34730;50.894;6.052;2022-07-29T03:08:42;16.80;99.90
48920;DHT22;34730;50.894;6.052;2022-07-29T03:09:14;16.80;99.90
48920;DHT22;34730;50.894;6.052;2022-07-29T03:09:45;16.80;99.90
48920;DHT22;34730;50.894;6.052;2022-07-29T03:10:16;16.90;99.90
48920;DHT22;34730;50.894;6.052;2022-07-29T03:10:48;16.80;99.90
48920;DHT22;34730;50.894;6.052;2022-07-29T03:11:20;16.80;99.90
48920;DHT22;34730;50.894;6.052;2022-07-29T03:11:55;16.80;99.90
48920;DHT22;34730;50.894;6.052;2022-07-29T03:12:26;16.80;99.90
48920;DHT22;34730;50.894;6.052;2022-07-29T03:13:04;16.80;99.90
48920;DHT22;34730;50.894;6.052;2022-07-29T03:13:38;16.80;99.90
48920;DHT22;34730;50.894;6.052;2022-07-29T03:14:09;16.80;99.90
48920;DHT22;34730;50.894;6.052;2022-07-29T03:14:41;16.80;99.90
48920;DHT22;34730;50.894;6.052;2022-07-29T03:15:13;16.70;99.90
48920;DHT22;34730;50.894;6.052;2022-07-29T03:15:47;16.70;99.90
48920;DHT22;34730;50.894;6.052;2022-07-29T03:16:19;16.80;99.90
48920;DHT22;34730;50.894;6.052;2022-07-29T03:16:51;16.80;99.90
48920;DHT22;34730;50.894;6.052;2022-07-29T03:17:22;16.80;99.90
48920;DHT22;34730;50.894;6.052;2022-07-29T03:17:56;16.80;99.90
48920;DHT22;34730;50.894;6.052;2022-07-29T03:18:29;16.90;99.90
48920;DHT22;34730;50.894;6.052;2022-07-29T03:19:00;17.00;99.90
48920;DHT22;34730;50.894;6.052;2022-07-29T03:19:32;17.00;99.90
48920;DHT22;34730;50.894;6.052;2022-07-29T03:20:06;17.00;99.90
48920;DHT22;34730;50.894;6.052;2022-07-29T03:20:38;16.90;99.90
48920;DHT22;34730;50.894;6.052;2022-07-29T03:21:09;16.90;99.90
48920;DHT22;34730;50.894;6.052;2022-07-29T03:21:40;16.90;99.90
48920;DHT22;34730;50.894;6.052;2022-07-29T03:22:13;16.90;99.90
48920;DHT22;34730;50.894;6.052;2022-07-29T03:22:45;16.90;99.90
48920;DHT22;34730;50.894;6.052;2022-07-29T03:23:25;16.90;99.90
48920;DHT22;34730;50.894;6.052;2022-07-29T03:23:58;16.80;99.90
48920;DHT22;34730;50.894;6.052;2022-07-29T03:24:31;16.80;99.90
48920;DHT22;34730;50.894;6.052;2022-07-29T03:25:12;16.80;99.90
48920;DHT22;34730;50.894;6.052;2022-07-29T03:25:43;16.80;99.90
48920;DHT22;34730;50.894;6.052;2022-07-29T03:26:14;16.80;99.90
48920;DHT22;34730;50.894;6.052;2022-07-29T03:26:45;16.80;99.90
48920;DHT22;34730;50.894;6.052;2022-07-29T03:27:16;16.80;99.90
48920;DHT22;34730;50.894;6.052;2022-07-29T03:27:47;16.80;99.90
48920;DHT22;34730;50.894;6.052;2022-07-29T03:28:18;16.80;99.90
48920;DHT22;34730;50.894;6.052;2022-07-29T03:28:49;16.80;99.90
48920;DHT22;34730;50.894;6.052;2022-07-29T03:29:21;16.80;99.90
48920;DHT22;34730;50.894;6.052;2022-07-29T03:29:51;16.80;99.90
48920;DHT22;34730;50.894;6.052;2022-07-29T03:30:23;16.80;99.90
48920;DHT22;34730;50.894;6.052;2022-07-29T03:30:54;16.80;99.90
48920;DHT22;34730;50.894;6.052;2022-07-29T03:31:25;16.80;99.90
48920;DHT22;34730;50.894;6.052;2022-07-29T03:31:56;16.80;99.90
48920;DHT22;34730;50.894;6.052;2022-07-29T03:32:27;16.90;99.90
48920;DHT22;34730;50.894;6.052;2022-07-29T03:32:58;16.80;99.90
48920;DHT22;34730;50.894;6.052;2022-07-29T03:33:30;16.90;99.90
48920;DHT22;34730;50.894;6.052;2022-07-29T03:34:00;16.90;99.90
48920;DHT22;34730;50.894;6.052;2022-07-29T03:34:32;16.90;99.90
48920;DHT22;34730;50.894;6.052;2022-07-29T03:35:04;16.90;99.90
48920;DHT22;34730;50.894;6.052;2022-07-29T03:35:36;16.90;99.90
48920;DHT22;34730;50.894;6.052;2022-07-29T03:36:07;16.90;99.90
48920;DHT22;34730;50.894;6.052;2022-07-29T03:36:37;16.80;99.90
48920;DHT22;34730;50.894;6.052;2022-07-29T03:37:08;16.80;99.90
48920;DHT22;34730;50.894;6.052;2022-07-29T03:37:39;16.80;99.90
48920;DHT22;34730;50.894;6.052;2022-07-29T03:38:10;16.80;99.90
48920;DHT22;34730;50.894;6.052;2022-07-29T03:38:42;16.80;99.90
48920;DHT22;34730;50.894;6.052;2022-07-29T03:39:20;16.80;99.90
48920;DHT22;34730;50.894;6.052;2022-07-29T03:39:55;16.80;99.90
48920;DHT22;34730;50.894;6.052;2022-07-29T03:40:31;16.90;99.90
48920;DHT22;34730;50.894;6.052;2022-07-29T03:41:09;16.80;99.90
48920;DHT22;34730;50.894;6.052;2022-07-29T03:41:41;16.80;99.90
48920;DHT22;34730;50.894;6.052;2022-07-29T03:42:16;16.80;99.90
48920;DHT22;34730;50.894;6.052;2022-07-29T03:42:51;16.70;99.90
48920;DHT22;34730;50.894;6.052;2022-07-29T03:43:25;16.80;99.90
48920;DHT22;34730;50.894;6.052;2022-07-29T03:43:58;16.70;99.90
48920;DHT22;34730;50.894;6.052;2022-07-29T03:44:30;16.80;99.90
48920;DHT22;34730;50.894;6.052;2022-07-29T03:45:07;16.80;99.90
48920;DHT22;34730;50.894;6.052;2022-07-29T03:45:39;16.80;99.90
48920;DHT22;34730;50.894;6.052;2022-07-29T03:46:13;16.80;99.90
48920;DHT22;34730;50.894;6.052;2022-07-29T03:46:48;16.80;99.90